<?xml version="1.0" encoding="utf-8"?>
<gpx xmlns:xsi="http://www.w3.org/2001/XMLSchema-instance" xmlns:xsd="http://www.w3.org/2001/XMLSchema" version="1.1" creator="Shapelink.com" xmlns="http://www.topografix.com/GPX/1/1" xmlns:gpxtpx="http://www.garmin.com/xmlschemas/TrackPointExtension/v1">
  <metadata>
    <name>Löpning 9.48 km, 2019-11-06</name>
    <desc></desc>
    <author><name>Per Rooth</name></author> 
    <time>2019-11-06T17:29:49Z</time>
  </metadata>
  <trk>
    <name>Löpning 9.48 km, 2019-11-06</name>
    <trkseg>
      <trkpt lat="56.873188152399" lon="14.792817672664">
        <ele>175.6</ele>
        <time>2019-11-06T17:29:49Z</time>
      </trkpt>
      <trkpt lat="56.873092766377" lon="14.792822450347">
        <ele>175.8</ele>
        <time>2019-11-06T17:29:53Z</time>
      </trkpt>
      <trkpt lat="56.872911382061" lon="14.792826976573">
        <ele>175.4</ele>
        <time>2019-11-06T17:30:00Z</time>
      </trkpt>
      <trkpt lat="56.872727986089" lon="14.792887158615">
        <ele>175.8</ele>
        <time>2019-11-06T17:30:07Z</time>
      </trkpt>
      <trkpt lat="56.872525144109" lon="14.792862934924">
        <ele>175.2</ele>
        <time>2019-11-06T17:30:14Z</time>
      </trkpt>
      <trkpt lat="56.872334707341" lon="14.792786491996">
        <ele>175.8</ele>
        <time>2019-11-06T17:30:21Z</time>
      </trkpt>
      <trkpt lat="56.872144019116" lon="14.792786911091">
        <ele>176</ele>
        <time>2019-11-06T17:30:30Z</time>
      </trkpt>
      <trkpt lat="56.871992558183" lon="14.792804010167">
        <ele>175.6</ele>
        <time>2019-11-06T17:30:36Z</time>
      </trkpt>
      <trkpt lat="56.871798098103" lon="14.792919512749">
        <ele>175.6</ele>
        <time>2019-11-06T17:30:43Z</time>
      </trkpt>
      <trkpt lat="56.87162149147" lon="14.793047001448">
        <ele>176.2</ele>
        <time>2019-11-06T17:30:50Z</time>
      </trkpt>
      <trkpt lat="56.871438933688" lon="14.79309125788">
        <ele>176</ele>
        <time>2019-11-06T17:30:57Z</time>
      </trkpt>
      <trkpt lat="56.871242461952" lon="14.793009618174">
        <ele>176.2</ele>
        <time>2019-11-06T17:31:04Z</time>
      </trkpt>
      <trkpt lat="56.871186303222" lon="14.792987992872">
        <ele>175.8</ele>
        <time>2019-11-06T17:31:06Z</time>
      </trkpt>
      <trkpt lat="56.870993184246" lon="14.792906269347">
        <ele>175.2</ele>
        <time>2019-11-06T17:31:13Z</time>
      </trkpt>
      <trkpt lat="56.870829904834" lon="14.79280878785">
        <ele>174.4</ele>
        <time>2019-11-06T17:31:19Z</time>
      </trkpt>
      <trkpt lat="56.870646760319" lon="14.792715916398">
        <ele>174.2</ele>
        <time>2019-11-06T17:31:26Z</time>
      </trkpt>
      <trkpt lat="56.870449031298" lon="14.792641652764">
        <ele>173.4</ele>
        <time>2019-11-06T17:31:33Z</time>
      </trkpt>
      <trkpt lat="56.870252811019" lon="14.792566970035">
        <ele>173</ele>
        <time>2019-11-06T17:31:40Z</time>
      </trkpt>
      <trkpt lat="56.870098416421" lon="14.792459933172">
        <ele>172.4</ele>
        <time>2019-11-06T17:31:46Z</time>
      </trkpt>
      <trkpt lat="56.870072264893" lon="14.792461944828">
        <ele>172</ele>
        <time>2019-11-06T17:31:47Z</time>
      </trkpt>
      <trkpt lat="56.869934382638" lon="14.792707199222">
        <ele>171.6</ele>
        <time>2019-11-06T17:31:54Z</time>
      </trkpt>
      <trkpt lat="56.869850982733" lon="14.792914818885">
        <ele>171.8</ele>
        <time>2019-11-06T17:31:59Z</time>
      </trkpt>
      <trkpt lat="56.869792225614" lon="14.79308790512">
        <ele>171.4</ele>
        <time>2019-11-06T17:32:03Z</time>
      </trkpt>
      <trkpt lat="56.869716704695" lon="14.793399544162">
        <ele>171.4</ele>
        <time>2019-11-06T17:32:10Z</time>
      </trkpt>
      <trkpt lat="56.869633220971" lon="14.793715122697">
        <ele>170.8</ele>
        <time>2019-11-06T17:32:17Z</time>
      </trkpt>
      <trkpt lat="56.869573877119" lon="14.793801540086">
        <ele>170.8</ele>
        <time>2019-11-06T17:32:20Z</time>
      </trkpt>
      <trkpt lat="56.869392828079" lon="14.793638260674">
        <ele>170.2</ele>
        <time>2019-11-06T17:32:27Z</time>
      </trkpt>
      <trkpt lat="56.869227453192" lon="14.793449919381">
        <ele>169.6</ele>
        <time>2019-11-06T17:32:34Z</time>
      </trkpt>
      <trkpt lat="56.869181352742" lon="14.793394598841">
        <ele>168.8</ele>
        <time>2019-11-06T17:32:36Z</time>
      </trkpt>
      <trkpt lat="56.8691379345" lon="14.793360568327">
        <ele>168.8</ele>
        <time>2019-11-06T17:32:38Z</time>
      </trkpt>
      <trkpt lat="56.869057216803" lon="14.79366541803">
        <ele>168.2</ele>
        <time>2019-11-06T17:32:45Z</time>
      </trkpt>
      <trkpt lat="56.869001225711" lon="14.793969094267">
        <ele>168</ele>
        <time>2019-11-06T17:32:51Z</time>
      </trkpt>
      <trkpt lat="56.868948419741" lon="14.79430411881">
        <ele>168</ele>
        <time>2019-11-06T17:32:58Z</time>
      </trkpt>
      <trkpt lat="56.868909443906" lon="14.794486173678">
        <ele>167.6</ele>
        <time>2019-11-06T17:33:02Z</time>
      </trkpt>
      <trkpt lat="56.86883702429" lon="14.794833351976">
        <ele>167.4</ele>
        <time>2019-11-06T17:33:09Z</time>
      </trkpt>
      <trkpt lat="56.868758485887" lon="14.795155887488">
        <ele>167.6</ele>
        <time>2019-11-06T17:33:16Z</time>
      </trkpt>
      <trkpt lat="56.868681540045" lon="14.79547674662">
        <ele>167.4</ele>
        <time>2019-11-06T17:33:23Z</time>
      </trkpt>
      <trkpt lat="56.868609288067" lon="14.79582543366">
        <ele>168</ele>
        <time>2019-11-06T17:33:31Z</time>
      </trkpt>
      <trkpt lat="56.868534018605" lon="14.796148304448">
        <ele>168</ele>
        <time>2019-11-06T17:33:38Z</time>
      </trkpt>
      <trkpt lat="56.868513147674" lon="14.796248384334">
        <ele>167.8</ele>
        <time>2019-11-06T17:33:40Z</time>
      </trkpt>
      <trkpt lat="56.868450283424" lon="14.796593718614">
        <ele>168</ele>
        <time>2019-11-06T17:33:47Z</time>
      </trkpt>
      <trkpt lat="56.868385826613" lon="14.796923294922">
        <ele>168.2</ele>
        <time>2019-11-06T17:33:54Z</time>
      </trkpt>
      <trkpt lat="56.868317933223" lon="14.797261839863">
        <ele>167.8</ele>
        <time>2019-11-06T17:34:01Z</time>
      </trkpt>
      <trkpt lat="56.868242160847" lon="14.797596948225">
        <ele>167.6</ele>
        <time>2019-11-06T17:34:08Z</time>
      </trkpt>
      <trkpt lat="56.86820502903" lon="14.797933984424">
        <ele>167.2</ele>
        <time>2019-11-06T17:34:15Z</time>
      </trkpt>
      <trkpt lat="56.868165298824" lon="14.798284934577">
        <ele>167.4</ele>
        <time>2019-11-06T17:34:22Z</time>
      </trkpt>
      <trkpt lat="56.868123305505" lon="14.798610906668">
        <ele>167.6</ele>
        <time>2019-11-06T17:34:28Z</time>
      </trkpt>
      <trkpt lat="56.868098075986" lon="14.798761445592">
        <ele>167</ele>
        <time>2019-11-06T17:34:31Z</time>
      </trkpt>
      <trkpt lat="56.868033702994" lon="14.799121364378">
        <ele>167.4</ele>
        <time>2019-11-06T17:34:38Z</time>
      </trkpt>
      <trkpt lat="56.868012077692" lon="14.799446665917">
        <ele>167</ele>
        <time>2019-11-06T17:34:44Z</time>
      </trkpt>
      <trkpt lat="56.868054573925" lon="14.799764591384">
        <ele>166.8</ele>
        <time>2019-11-06T17:34:50Z</time>
      </trkpt>
      <trkpt lat="56.86813378288" lon="14.800068099983">
        <ele>166.8</ele>
        <time>2019-11-06T17:34:56Z</time>
      </trkpt>
      <trkpt lat="56.868206370134" lon="14.800303799011">
        <ele>166.6</ele>
        <time>2019-11-06T17:35:01Z</time>
      </trkpt>
      <trkpt lat="56.868292787523" lon="14.800627340351">
        <ele>166.2</ele>
        <time>2019-11-06T17:35:08Z</time>
      </trkpt>
      <trkpt lat="56.868321453621" lon="14.800921712679">
        <ele>166.4</ele>
        <time>2019-11-06T17:35:14Z</time>
      </trkpt>
      <trkpt lat="56.86814635573" lon="14.801142156649">
        <ele>166.4</ele>
        <time>2019-11-06T17:35:20Z</time>
      </trkpt>
      <trkpt lat="56.868042839265" lon="14.80127366866">
        <ele>166.6</ele>
        <time>2019-11-06T17:35:24Z</time>
      </trkpt>
      <trkpt lat="56.867883583165" lon="14.801424123765">
        <ele>166.6</ele>
        <time>2019-11-06T17:35:30Z</time>
      </trkpt>
      <trkpt lat="56.867696582976" lon="14.801526299126">
        <ele>167</ele>
        <time>2019-11-06T17:35:37Z</time>
      </trkpt>
      <trkpt lat="56.867510253339" lon="14.801640879699">
        <ele>167.2</ele>
        <time>2019-11-06T17:35:44Z</time>
      </trkpt>
      <trkpt lat="56.867323923702" lon="14.80175981886">
        <ele>167.4</ele>
        <time>2019-11-06T17:35:51Z</time>
      </trkpt>
      <trkpt lat="56.867269860447" lon="14.801800471075">
        <ele>167.6</ele>
        <time>2019-11-06T17:35:53Z</time>
      </trkpt>
      <trkpt lat="56.86708101624" lon="14.801906837386">
        <ele>167.2</ele>
        <time>2019-11-06T17:36:00Z</time>
      </trkpt>
      <trkpt lat="56.866906505082" lon="14.802003396874">
        <ele>166.8</ele>
        <time>2019-11-06T17:36:07Z</time>
      </trkpt>
      <trkpt lat="56.866743980041" lon="14.802159803128">
        <ele>167</ele>
        <time>2019-11-06T17:36:14Z</time>
      </trkpt>
      <trkpt lat="56.866702070541" lon="14.802240604644">
        <ele>167.4</ele>
        <time>2019-11-06T17:36:16Z</time>
      </trkpt>
      <trkpt lat="56.866596626239" lon="14.802522823217">
        <ele>167.2</ele>
        <time>2019-11-06T17:36:22Z</time>
      </trkpt>
      <trkpt lat="56.866522865519" lon="14.802821386495">
        <ele>167</ele>
        <time>2019-11-06T17:36:28Z</time>
      </trkpt>
      <trkpt lat="56.866462934934" lon="14.803167475146">
        <ele>167</ele>
        <time>2019-11-06T17:36:35Z</time>
      </trkpt>
      <trkpt lat="56.866447428419" lon="14.803327904712">
        <ele>166.4</ele>
        <time>2019-11-06T17:36:38Z</time>
      </trkpt>
      <trkpt lat="56.866395879734" lon="14.80364826093">
        <ele>167.2</ele>
        <time>2019-11-06T17:36:45Z</time>
      </trkpt>
      <trkpt lat="56.866375092622" lon="14.80396006761">
        <ele>167.4</ele>
        <time>2019-11-06T17:36:52Z</time>
      </trkpt>
      <trkpt lat="56.866374338251" lon="14.804105242118">
        <ele>166.2</ele>
        <time>2019-11-06T17:36:56Z</time>
      </trkpt>
      <trkpt lat="56.86617241828" lon="14.80408411973">
        <ele>165.8</ele>
        <time>2019-11-06T17:37:03Z</time>
      </trkpt>
      <trkpt lat="56.865969743938" lon="14.804027290448">
        <ele>166</ele>
        <time>2019-11-06T17:37:10Z</time>
      </trkpt>
      <trkpt lat="56.865784084853" lon="14.803861580285">
        <ele>165.4</ele>
        <time>2019-11-06T17:37:17Z</time>
      </trkpt>
      <trkpt lat="56.865608148772" lon="14.803738869269">
        <ele>165.4</ele>
        <time>2019-11-06T17:37:23Z</time>
      </trkpt>
      <trkpt lat="56.865520725555" lon="14.803680028331">
        <ele>165.4</ele>
        <time>2019-11-06T17:37:26Z</time>
      </trkpt>
      <trkpt lat="56.865322745077" lon="14.803560167161">
        <ele>165.6</ele>
        <time>2019-11-06T17:37:33Z</time>
      </trkpt>
      <trkpt lat="56.865143372417" lon="14.803524041172">
        <ele>165.2</ele>
        <time>2019-11-06T17:37:38Z</time>
      </trkpt>
      <trkpt lat="56.864934076374" lon="14.803502834965">
        <ele>165.8</ele>
        <time>2019-11-06T17:37:44Z</time>
      </trkpt>
      <trkpt lat="56.864733413688" lon="14.803510881589">
        <ele>165.4</ele>
        <time>2019-11-06T17:37:51Z</time>
      </trkpt>
      <trkpt lat="56.86454800606" lon="14.803535524375">
        <ele>165.6</ele>
        <time>2019-11-06T17:37:57Z</time>
      </trkpt>
      <trkpt lat="56.86436695702" lon="14.803550863252">
        <ele>165</ele>
        <time>2019-11-06T17:38:04Z</time>
      </trkpt>
      <trkpt lat="56.864180711202" lon="14.803566453586">
        <ele>164.8</ele>
        <time>2019-11-06T17:38:10Z</time>
      </trkpt>
      <trkpt lat="56.86398474238" lon="14.803657145744">
        <ele>165.8</ele>
        <time>2019-11-06T17:38:17Z</time>
      </trkpt>
      <trkpt lat="56.863807632833" lon="14.803848672159">
        <ele>165.2</ele>
        <time>2019-11-06T17:38:23Z</time>
      </trkpt>
      <trkpt lat="56.86367209751" lon="14.804073809993">
        <ele>166</ele>
        <time>2019-11-06T17:38:28Z</time>
      </trkpt>
      <trkpt lat="56.86364527543" lon="14.804118066425">
        <ele>165.8</ele>
        <time>2019-11-06T17:38:29Z</time>
      </trkpt>
      <trkpt lat="56.863504291872" lon="14.804375893669">
        <ele>166</ele>
        <time>2019-11-06T17:38:35Z</time>
      </trkpt>
      <trkpt lat="56.863466405684" lon="14.804445547258">
        <ele>166.4</ele>
        <time>2019-11-06T17:38:37Z</time>
      </trkpt>
      <trkpt lat="56.863336486234" lon="14.804678983173">
        <ele>166</ele>
        <time>2019-11-06T17:38:43Z</time>
      </trkpt>
      <trkpt lat="56.863197262875" lon="14.804957010796">
        <ele>166</ele>
        <time>2019-11-06T17:38:49Z</time>
      </trkpt>
      <trkpt lat="56.863062481923" lon="14.805204193027">
        <ele>165.6</ele>
        <time>2019-11-06T17:38:55Z</time>
      </trkpt>
      <trkpt lat="56.862967431177" lon="14.805407537921">
        <ele>165.4</ele>
        <time>2019-11-06T17:38:59Z</time>
      </trkpt>
      <trkpt lat="56.862841283582" lon="14.805670729581">
        <ele>164.8</ele>
        <time>2019-11-06T17:39:05Z</time>
      </trkpt>
      <trkpt lat="56.862705161526" lon="14.805935429983">
        <ele>164.8</ele>
        <time>2019-11-06T17:39:11Z</time>
      </trkpt>
      <trkpt lat="56.862554874059" lon="14.806212200321">
        <ele>164.6</ele>
        <time>2019-11-06T17:39:17Z</time>
      </trkpt>
      <trkpt lat="56.86243157631" lon="14.806528617046">
        <ele>164.8</ele>
        <time>2019-11-06T17:39:23Z</time>
      </trkpt>
      <trkpt lat="56.862323114524" lon="14.806829527256">
        <ele>164.8</ele>
        <time>2019-11-06T17:39:29Z</time>
      </trkpt>
      <trkpt lat="56.862201576974" lon="14.807100262626">
        <ele>164.6</ele>
        <time>2019-11-06T17:39:35Z</time>
      </trkpt>
      <trkpt lat="56.862140137647" lon="14.807206628937">
        <ele>165.2</ele>
        <time>2019-11-06T17:39:38Z</time>
      </trkpt>
      <trkpt lat="56.8620049376" lon="14.807477783402">
        <ele>165.6</ele>
        <time>2019-11-06T17:39:45Z</time>
      </trkpt>
      <trkpt lat="56.861885663163" lon="14.807752625903">
        <ele>165.2</ele>
        <time>2019-11-06T17:39:51Z</time>
      </trkpt>
      <trkpt lat="56.861786672924" lon="14.808029815336">
        <ele>165.4</ele>
        <time>2019-11-06T17:39:57Z</time>
      </trkpt>
      <trkpt lat="56.861679887518" lon="14.80835805054">
        <ele>166.2</ele>
        <time>2019-11-06T17:40:03Z</time>
      </trkpt>
      <trkpt lat="56.86157578432" lon="14.808667510288">
        <ele>165.8</ele>
        <time>2019-11-06T17:40:09Z</time>
      </trkpt>
      <trkpt lat="56.861476458805" lon="14.808976802398">
        <ele>165.2</ele>
        <time>2019-11-06T17:40:15Z</time>
      </trkpt>
      <trkpt lat="56.861386185742" lon="14.809319286832">
        <ele>164.8</ele>
        <time>2019-11-06T17:40:22Z</time>
      </trkpt>
      <trkpt lat="56.861312760298" lon="14.809662525637">
        <ele>164.8</ele>
        <time>2019-11-06T17:40:28Z</time>
      </trkpt>
      <trkpt lat="56.861232377877" lon="14.809963435847">
        <ele>164.4</ele>
        <time>2019-11-06T17:40:34Z</time>
      </trkpt>
      <trkpt lat="56.861179655726" lon="14.810290246128">
        <ele>164.6</ele>
        <time>2019-11-06T17:40:40Z</time>
      </trkpt>
      <trkpt lat="56.861193234404" lon="14.810663324497">
        <ele>165</ele>
        <time>2019-11-06T17:40:48Z</time>
      </trkpt>
      <trkpt lat="56.861213518602" lon="14.810798943639">
        <ele>165.2</ele>
        <time>2019-11-06T17:40:51Z</time>
      </trkpt>
      <trkpt lat="56.861176302966" lon="14.811158191873">
        <ele>164.8</ele>
        <time>2019-11-06T17:40:58Z</time>
      </trkpt>
      <trkpt lat="56.861194659327" lon="14.811462622481">
        <ele>165</ele>
        <time>2019-11-06T17:41:04Z</time>
      </trkpt>
      <trkpt lat="56.861247632935" lon="14.811832599547">
        <ele>165.4</ele>
        <time>2019-11-06T17:41:10Z</time>
      </trkpt>
      <trkpt lat="56.861323572949" lon="14.812143735675">
        <ele>164.6</ele>
        <time>2019-11-06T17:41:16Z</time>
      </trkpt>
      <trkpt lat="56.86143161564" lon="14.812454955622">
        <ele>165.2</ele>
        <time>2019-11-06T17:41:23Z</time>
      </trkpt>
      <trkpt lat="56.861591207016" lon="14.812630975522">
        <ele>165.8</ele>
        <time>2019-11-06T17:41:30Z</time>
      </trkpt>
      <trkpt lat="56.861756917179" lon="14.81280213392">
        <ele>165.8</ele>
        <time>2019-11-06T17:41:36Z</time>
      </trkpt>
      <trkpt lat="56.861888764466" lon="14.813009921221">
        <ele>166.4</ele>
        <time>2019-11-06T17:41:42Z</time>
      </trkpt>
      <trkpt lat="56.862041901779" lon="14.813229024087">
        <ele>166.2</ele>
        <time>2019-11-06T17:41:48Z</time>
      </trkpt>
      <trkpt lat="56.862230745986" lon="14.813362715392">
        <ele>167.6</ele>
        <time>2019-11-06T17:41:54Z</time>
      </trkpt>
      <trkpt lat="56.862414644872" lon="14.813381071753">
        <ele>167</ele>
        <time>2019-11-06T17:41:59Z</time>
      </trkpt>
      <trkpt lat="56.862508103057" lon="14.813395488621">
        <ele>166.4</ele>
        <time>2019-11-06T17:42:02Z</time>
      </trkpt>
      <trkpt lat="56.86268806245" lon="14.813482492743">
        <ele>166</ele>
        <time>2019-11-06T17:42:08Z</time>
      </trkpt>
      <trkpt lat="56.862830303293" lon="14.813727830956">
        <ele>165.4</ele>
        <time>2019-11-06T17:42:14Z</time>
      </trkpt>
      <trkpt lat="56.862923342383" lon="14.814048270993">
        <ele>165.6</ele>
        <time>2019-11-06T17:42:20Z</time>
      </trkpt>
      <trkpt lat="56.862948655721" lon="14.814406513399">
        <ele>165.4</ele>
        <time>2019-11-06T17:42:26Z</time>
      </trkpt>
      <trkpt lat="56.862943375124" lon="14.814736005888">
        <ele>166</ele>
        <time>2019-11-06T17:42:32Z</time>
      </trkpt>
      <trkpt lat="56.862819155366" lon="14.815022331592">
        <ele>166.2</ele>
        <time>2019-11-06T17:42:40Z</time>
      </trkpt>
      <trkpt lat="56.862690660839" lon="14.815277141352">
        <ele>165.4</ele>
        <time>2019-11-06T17:42:47Z</time>
      </trkpt>
      <trkpt lat="56.862545402512" lon="14.815530945284">
        <ele>165.6</ele>
        <time>2019-11-06T17:42:54Z</time>
      </trkpt>
      <trkpt lat="56.862381704005" lon="14.815784749216">
        <ele>166.2</ele>
        <time>2019-11-06T17:43:01Z</time>
      </trkpt>
      <trkpt lat="56.862251114003" lon="14.815987088282">
        <ele>165.8</ele>
        <time>2019-11-06T17:43:05Z</time>
      </trkpt>
      <trkpt lat="56.86210049126" lon="14.816184649665">
        <ele>165.8</ele>
        <time>2019-11-06T17:43:10Z</time>
      </trkpt>
      <trkpt lat="56.861958920969" lon="14.816430490792">
        <ele>165.8</ele>
        <time>2019-11-06T17:43:17Z</time>
      </trkpt>
      <trkpt lat="56.861854231038" lon="14.816723354378">
        <ele>165.4</ele>
        <time>2019-11-06T17:43:23Z</time>
      </trkpt>
      <trkpt lat="56.861870240467" lon="14.817106742484">
        <ele>165.6</ele>
        <time>2019-11-06T17:43:30Z</time>
      </trkpt>
      <trkpt lat="56.861886668991" lon="14.817439252457">
        <ele>165.2</ele>
        <time>2019-11-06T17:43:36Z</time>
      </trkpt>
      <trkpt lat="56.86192782412" lon="14.817805373849">
        <ele>165</ele>
        <time>2019-11-06T17:43:43Z</time>
      </trkpt>
      <trkpt lat="56.861932685622" lon="14.81818918105">
        <ele>164.6</ele>
        <time>2019-11-06T17:43:50Z</time>
      </trkpt>
      <trkpt lat="56.862026395264" lon="14.818542226678">
        <ele>165.6</ele>
        <time>2019-11-06T17:43:57Z</time>
      </trkpt>
      <trkpt lat="56.862053887896" lon="14.818684216064">
        <ele>165</ele>
        <time>2019-11-06T17:44:00Z</time>
      </trkpt>
      <trkpt lat="56.86191776584" lon="14.818942294765">
        <ele>166</ele>
        <time>2019-11-06T17:44:06Z</time>
      </trkpt>
      <trkpt lat="56.861763874156" lon="14.819197020706">
        <ele>165.2</ele>
        <time>2019-11-06T17:44:12Z</time>
      </trkpt>
      <trkpt lat="56.861636720733" lon="14.819471527931">
        <ele>164.8</ele>
        <time>2019-11-06T17:44:18Z</time>
      </trkpt>
      <trkpt lat="56.861603025495" lon="14.819840163893">
        <ele>165.4</ele>
        <time>2019-11-06T17:44:24Z</time>
      </trkpt>
      <trkpt lat="56.861646779013" lon="14.820170159296">
        <ele>165.4</ele>
        <time>2019-11-06T17:44:30Z</time>
      </trkpt>
      <trkpt lat="56.861608138454" lon="14.820306868085">
        <ele>165.6</ele>
        <time>2019-11-06T17:44:32Z</time>
      </trkpt>
      <trkpt lat="56.861655580008" lon="14.820652453822">
        <ele>165.6</ele>
        <time>2019-11-06T17:44:37Z</time>
      </trkpt>
      <trkpt lat="56.861722886665" lon="14.820965433968">
        <ele>166</ele>
        <time>2019-11-06T17:44:43Z</time>
      </trkpt>
      <trkpt lat="56.861683407916" lon="14.821153188528">
        <ele>166</ele>
        <time>2019-11-06T17:44:48Z</time>
      </trkpt>
      <trkpt lat="56.861533623363" lon="14.821394754886">
        <ele>166.2</ele>
        <time>2019-11-06T17:44:55Z</time>
      </trkpt>
      <trkpt lat="56.861367410286" lon="14.821565158913">
        <ele>166</ele>
        <time>2019-11-06T17:45:02Z</time>
      </trkpt>
      <trkpt lat="56.861233048429" lon="14.821807395823">
        <ele>166.4</ele>
        <time>2019-11-06T17:45:08Z</time>
      </trkpt>
      <trkpt lat="56.861115701829" lon="14.822141414538">
        <ele>166.4</ele>
        <time>2019-11-06T17:45:14Z</time>
      </trkpt>
      <trkpt lat="56.861020986359" lon="14.822436038323">
        <ele>166.2</ele>
        <time>2019-11-06T17:45:19Z</time>
      </trkpt>
      <trkpt lat="56.860846894296" lon="14.822636784828">
        <ele>165.6</ele>
        <time>2019-11-06T17:45:25Z</time>
      </trkpt>
      <trkpt lat="56.860811103583" lon="14.822712808661">
        <ele>165.8</ele>
        <time>2019-11-06T17:45:27Z</time>
      </trkpt>
      <trkpt lat="56.860773720309" lon="14.823069458506">
        <ele>166</ele>
        <time>2019-11-06T17:45:33Z</time>
      </trkpt>
      <trkpt lat="56.860666012894" lon="14.823385288498">
        <ele>165.8</ele>
        <time>2019-11-06T17:45:40Z</time>
      </trkpt>
      <trkpt lat="56.860522598585" lon="14.823647725787">
        <ele>165.8</ele>
        <time>2019-11-06T17:45:46Z</time>
      </trkpt>
      <trkpt lat="56.860358900078" lon="14.823876384019">
        <ele>166</ele>
        <time>2019-11-06T17:45:52Z</time>
      </trkpt>
      <trkpt lat="56.860209786077" lon="14.82413362453">
        <ele>166.2</ele>
        <time>2019-11-06T17:45:58Z</time>
      </trkpt>
      <trkpt lat="56.860091433649" lon="14.824255078261">
        <ele>165.4</ele>
        <time>2019-11-06T17:46:02Z</time>
      </trkpt>
      <trkpt lat="56.859896470655" lon="14.824353481767">
        <ele>166.2</ele>
        <time>2019-11-06T17:46:08Z</time>
      </trkpt>
      <trkpt lat="56.859709051371" lon="14.824444257744">
        <ele>165.6</ele>
        <time>2019-11-06T17:46:14Z</time>
      </trkpt>
      <trkpt lat="56.859560440284" lon="14.824569567149">
        <ele>166.6</ele>
        <time>2019-11-06T17:46:19Z</time>
      </trkpt>
      <trkpt lat="56.859401435641" lon="14.824755645329">
        <ele>165.6</ele>
        <time>2019-11-06T17:46:25Z</time>
      </trkpt>
      <trkpt lat="56.859283250851" lon="14.825006934691">
        <ele>166</ele>
        <time>2019-11-06T17:46:30Z</time>
      </trkpt>
      <trkpt lat="56.859212256158" lon="14.825221762788">
        <ele>165.6</ele>
        <time>2019-11-06T17:46:34Z</time>
      </trkpt>
      <trkpt lat="56.859121564" lon="14.825551255277">
        <ele>165.4</ele>
        <time>2019-11-06T17:46:40Z</time>
      </trkpt>
      <trkpt lat="56.859040091932" lon="14.825889716399">
        <ele>165.4</ele>
        <time>2019-11-06T17:46:46Z</time>
      </trkpt>
      <trkpt lat="56.858950740878" lon="14.826217951603">
        <ele>164.8</ele>
        <time>2019-11-06T17:46:52Z</time>
      </trkpt>
      <trkpt lat="56.858862479471" lon="14.826546857359">
        <ele>165.2</ele>
        <time>2019-11-06T17:46:58Z</time>
      </trkpt>
      <trkpt lat="56.858764578879" lon="14.826888838879">
        <ele>165.6</ele>
        <time>2019-11-06T17:47:05Z</time>
      </trkpt>
      <trkpt lat="56.858679251137" lon="14.827212128762">
        <ele>165.2</ele>
        <time>2019-11-06T17:47:11Z</time>
      </trkpt>
      <trkpt lat="56.858595767413" lon="14.827539693414">
        <ele>165.6</ele>
        <time>2019-11-06T17:47:17Z</time>
      </trkpt>
      <trkpt lat="56.858520917046" lon="14.82788703935">
        <ele>165.4</ele>
        <time>2019-11-06T17:47:23Z</time>
      </trkpt>
      <trkpt lat="56.858458807167" lon="14.828226422481">
        <ele>165.6</ele>
        <time>2019-11-06T17:47:29Z</time>
      </trkpt>
      <trkpt lat="56.858412874355" lon="14.828547952165">
        <ele>166</ele>
        <time>2019-11-06T17:47:35Z</time>
      </trkpt>
      <trkpt lat="56.858351937942" lon="14.82888616183">
        <ele>165.2</ele>
        <time>2019-11-06T17:47:41Z</time>
      </trkpt>
      <trkpt lat="56.858296701221" lon="14.829230406463">
        <ele>165.8</ele>
        <time>2019-11-06T17:47:47Z</time>
      </trkpt>
      <trkpt lat="56.858251355142" lon="14.82957347763">
        <ele>165.4</ele>
        <time>2019-11-06T17:47:53Z</time>
      </trkpt>
      <trkpt lat="56.858194190584" lon="14.82988947526">
        <ele>166.4</ele>
        <time>2019-11-06T17:47:59Z</time>
      </trkpt>
      <trkpt lat="56.858184216123" lon="14.829939096108">
        <ele>166.6</ele>
        <time>2019-11-06T17:48:00Z</time>
      </trkpt>
      <trkpt lat="56.858101067675" lon="14.830237407929">
        <ele>167.2</ele>
        <time>2019-11-06T17:48:07Z</time>
      </trkpt>
      <trkpt lat="56.858086566988" lon="14.830272779547">
        <ele>167.6</ele>
        <time>2019-11-06T17:48:08Z</time>
      </trkpt>
      <trkpt lat="56.858044741307" lon="14.830380906057">
        <ele>169</ele>
        <time>2019-11-06T17:48:11Z</time>
      </trkpt>
      <trkpt lat="56.857930328372" lon="14.830655245644">
        <ele>170.2</ele>
        <time>2019-11-06T17:48:18Z</time>
      </trkpt>
      <trkpt lat="56.85773435955" lon="14.83077963304">
        <ele>171</ele>
        <time>2019-11-06T17:48:25Z</time>
      </trkpt>
      <trkpt lat="56.857702340692" lon="14.830792122071">
        <ele>171.2</ele>
        <time>2019-11-06T17:48:26Z</time>
      </trkpt>
      <trkpt lat="56.857512909752" lon="14.830824560024">
        <ele>171.8</ele>
        <time>2019-11-06T17:48:32Z</time>
      </trkpt>
      <trkpt lat="56.857458259764" lon="14.83084501186">
        <ele>171.8</ele>
        <time>2019-11-06T17:48:35Z</time>
      </trkpt>
      <trkpt lat="56.857497319418" lon="14.831200655877">
        <ele>171.4</ele>
        <time>2019-11-06T17:48:43Z</time>
      </trkpt>
      <trkpt lat="56.857477538134" lon="14.831543894682">
        <ele>171.2</ele>
        <time>2019-11-06T17:48:49Z</time>
      </trkpt>
      <trkpt lat="56.857579126762" lon="14.831874476818">
        <ele>170.2</ele>
        <time>2019-11-06T17:48:55Z</time>
      </trkpt>
      <trkpt lat="56.857588095395" lon="14.831934826498">
        <ele>170</ele>
        <time>2019-11-06T17:48:56Z</time>
      </trkpt>
      <trkpt lat="56.857640733727" lon="14.832161892169">
        <ele>168.8</ele>
        <time>2019-11-06T17:49:00Z</time>
      </trkpt>
      <trkpt lat="56.857804599872" lon="14.832357860991">
        <ele>168</ele>
        <time>2019-11-06T17:49:06Z</time>
      </trkpt>
      <trkpt lat="56.857824716432" lon="14.832397423559">
        <ele>167.8</ele>
        <time>2019-11-06T17:49:07Z</time>
      </trkpt>
      <trkpt lat="56.857923036119" lon="14.83261526914">
        <ele>166.6</ele>
        <time>2019-11-06T17:49:12Z</time>
      </trkpt>
      <trkpt lat="56.858002161255" lon="14.832942079421">
        <ele>166.4</ele>
        <time>2019-11-06T17:49:19Z</time>
      </trkpt>
      <trkpt lat="56.858134846732" lon="14.833252628816">
        <ele>166.2</ele>
        <time>2019-11-06T17:49:25Z</time>
      </trkpt>
      <trkpt lat="56.858244901079" lon="14.833538283968">
        <ele>165.8</ele>
        <time>2019-11-06T17:49:31Z</time>
      </trkpt>
      <trkpt lat="56.858317488333" lon="14.833882025687">
        <ele>165.6</ele>
        <time>2019-11-06T17:49:37Z</time>
      </trkpt>
      <trkpt lat="56.858329893545" lon="14.833930808345">
        <ele>165.6</ele>
        <time>2019-11-06T17:49:38Z</time>
      </trkpt>
      <trkpt lat="56.858462243746" lon="14.834198023317">
        <ele>166.4</ele>
        <time>2019-11-06T17:49:44Z</time>
      </trkpt>
      <trkpt lat="56.858512116051" lon="14.834350825354">
        <ele>166.6</ele>
        <time>2019-11-06T17:49:47Z</time>
      </trkpt>
      <trkpt lat="56.858638347465" lon="14.834643772759">
        <ele>166.8</ele>
        <time>2019-11-06T17:49:53Z</time>
      </trkpt>
      <trkpt lat="56.85875695135" lon="14.834896989958">
        <ele>166.6</ele>
        <time>2019-11-06T17:49:58Z</time>
      </trkpt>
      <trkpt lat="56.858827443129" lon="14.835240144944">
        <ele>166.4</ele>
        <time>2019-11-06T17:50:03Z</time>
      </trkpt>
      <trkpt lat="56.858880584375" lon="14.835441897277">
        <ele>165.6</ele>
        <time>2019-11-06T17:50:06Z</time>
      </trkpt>
      <trkpt lat="56.858983597926" lon="14.835731743379">
        <ele>165.2</ele>
        <time>2019-11-06T17:50:11Z</time>
      </trkpt>
      <trkpt lat="56.859113517376" lon="14.836040281118">
        <ele>165</ele>
        <time>2019-11-06T17:50:17Z</time>
      </trkpt>
      <trkpt lat="56.859218626402" lon="14.836332306514">
        <ele>164.8</ele>
        <time>2019-11-06T17:50:23Z</time>
      </trkpt>
      <trkpt lat="56.859301858669" lon="14.836657188958">
        <ele>166</ele>
        <time>2019-11-06T17:50:30Z</time>
      </trkpt>
      <trkpt lat="56.859415098138" lon="14.836970755837">
        <ele>165.2</ele>
        <time>2019-11-06T17:50:36Z</time>
      </trkpt>
      <trkpt lat="56.85953479167" lon="14.837269402934">
        <ele>165.6</ele>
        <time>2019-11-06T17:50:42Z</time>
      </trkpt>
      <trkpt lat="56.859686001146" lon="14.837454223829">
        <ele>166.4</ele>
        <time>2019-11-06T17:50:49Z</time>
      </trkpt>
      <trkpt lat="56.85988096414" lon="14.837451793078">
        <ele>165.8</ele>
        <time>2019-11-06T17:50:56Z</time>
      </trkpt>
      <trkpt lat="56.860066790863" lon="14.83736948282">
        <ele>165.2</ele>
        <time>2019-11-06T17:51:02Z</time>
      </trkpt>
      <trkpt lat="56.860242810763" lon="14.837300835059">
        <ele>166.2</ele>
        <time>2019-11-06T17:51:08Z</time>
      </trkpt>
      <trkpt lat="56.860358900078" lon="14.837315251927">
        <ele>166.6</ele>
        <time>2019-11-06T17:51:12Z</time>
      </trkpt>
      <trkpt lat="56.860551264683" lon="14.837223973036">
        <ele>167.2</ele>
        <time>2019-11-06T17:51:19Z</time>
      </trkpt>
      <trkpt lat="56.860608932155" lon="14.837170412695">
        <ele>168</ele>
        <time>2019-11-06T17:51:21Z</time>
      </trkpt>
      <trkpt lat="56.860777408345" lon="14.836996655908">
        <ele>168</ele>
        <time>2019-11-06T17:51:27Z</time>
      </trkpt>
      <trkpt lat="56.860981339972" lon="14.836962625394">
        <ele>168</ele>
        <time>2019-11-06T17:51:34Z</time>
      </trkpt>
      <trkpt lat="56.861166160867" lon="14.837089024446">
        <ele>167.8</ele>
        <time>2019-11-06T17:51:40Z</time>
      </trkpt>
      <trkpt lat="56.86135869311" lon="14.837127413548">
        <ele>167</ele>
        <time>2019-11-06T17:51:46Z</time>
      </trkpt>
      <trkpt lat="56.861515183183" lon="14.837075864863">
        <ele>166.8</ele>
        <time>2019-11-06T17:51:51Z</time>
      </trkpt>
      <trkpt lat="56.861633116516" lon="14.837099501821">
        <ele>165.8</ele>
        <time>2019-11-06T17:51:55Z</time>
      </trkpt>
      <trkpt lat="56.861797317937" lon="14.837218021887">
        <ele>164.6</ele>
        <time>2019-11-06T17:52:00Z</time>
      </trkpt>
      <trkpt lat="56.861991023646" lon="14.837296225014">
        <ele>164.8</ele>
        <time>2019-11-06T17:52:05Z</time>
      </trkpt>
      <trkpt lat="56.862195625825" lon="14.837314413737">
        <ele>165</ele>
        <time>2019-11-06T17:52:11Z</time>
      </trkpt>
      <trkpt lat="56.862397294339" lon="14.837253058229">
        <ele>164.8</ele>
        <time>2019-11-06T17:52:17Z</time>
      </trkpt>
      <trkpt lat="56.862578427198" lon="14.837164210089">
        <ele>164.8</ele>
        <time>2019-11-06T17:52:22Z</time>
      </trkpt>
      <trkpt lat="56.86275176489" lon="14.837018448848">
        <ele>165</ele>
        <time>2019-11-06T17:52:27Z</time>
      </trkpt>
      <trkpt lat="56.862865171997" lon="14.836881740059">
        <ele>165.6</ele>
        <time>2019-11-06T17:52:31Z</time>
      </trkpt>
      <trkpt lat="56.863007329021" lon="14.836628941955">
        <ele>165</ele>
        <time>2019-11-06T17:52:37Z</time>
      </trkpt>
      <trkpt lat="56.86315912523" lon="14.836385699217">
        <ele>165.6</ele>
        <time>2019-11-06T17:52:43Z</time>
      </trkpt>
      <trkpt lat="56.86331838133" lon="14.836230717886">
        <ele>165.4</ele>
        <time>2019-11-06T17:52:48Z</time>
      </trkpt>
      <trkpt lat="56.863490545556" lon="14.836024774603">
        <ele>165.2</ele>
        <time>2019-11-06T17:52:54Z</time>
      </trkpt>
      <trkpt lat="56.863660949583" lon="14.835784633168">
        <ele>165.4</ele>
        <time>2019-11-06T17:53:00Z</time>
      </trkpt>
      <trkpt lat="56.863830180144" lon="14.835576175315">
        <ele>165.2</ele>
        <time>2019-11-06T17:53:06Z</time>
      </trkpt>
      <trkpt lat="56.863995303574" lon="14.835371154041">
        <ele>165.2</ele>
        <time>2019-11-06T17:53:12Z</time>
      </trkpt>
      <trkpt lat="56.864131677087" lon="14.835129252407">
        <ele>165.4</ele>
        <time>2019-11-06T17:53:18Z</time>
      </trkpt>
      <trkpt lat="56.864245335651" lon="14.83486832386">
        <ele>165</ele>
        <time>2019-11-06T17:53:23Z</time>
      </trkpt>
      <trkpt lat="56.864289172988" lon="14.834775703865">
        <ele>164.6</ele>
        <time>2019-11-06T17:53:25Z</time>
      </trkpt>
      <trkpt lat="56.864409034158" lon="14.834530700928">
        <ele>164.8</ele>
        <time>2019-11-06T17:53:30Z</time>
      </trkpt>
      <trkpt lat="56.864592011035" lon="14.834365577498">
        <ele>164.8</ele>
        <time>2019-11-06T17:53:36Z</time>
      </trkpt>
      <trkpt lat="56.864751602411" lon="14.834152425781">
        <ele>164.6</ele>
        <time>2019-11-06T17:53:42Z</time>
      </trkpt>
      <trkpt lat="56.864818909068" lon="14.833832740115">
        <ele>165</ele>
        <time>2019-11-06T17:53:47Z</time>
      </trkpt>
      <trkpt lat="56.864891747779" lon="14.833470893492">
        <ele>164.8</ele>
        <time>2019-11-06T17:53:53Z</time>
      </trkpt>
      <trkpt lat="56.864992582036" lon="14.833166295246">
        <ele>164.6</ele>
        <time>2019-11-06T17:53:59Z</time>
      </trkpt>
      <trkpt lat="56.865098193976" lon="14.832877287334">
        <ele>164.6</ele>
        <time>2019-11-06T17:54:05Z</time>
      </trkpt>
      <trkpt lat="56.865224341571" lon="14.832607557792">
        <ele>164.4</ele>
        <time>2019-11-06T17:54:11Z</time>
      </trkpt>
      <trkpt lat="56.865310172227" lon="14.832310419437">
        <ele>165.4</ele>
        <time>2019-11-06T17:54:17Z</time>
      </trkpt>
      <trkpt lat="56.86530321525" lon="14.831928120978">
        <ele>164.8</ele>
        <time>2019-11-06T17:54:23Z</time>
      </trkpt>
      <trkpt lat="56.865205063201" lon="14.831605753104">
        <ele>165.4</ele>
        <time>2019-11-06T17:54:29Z</time>
      </trkpt>
      <trkpt lat="56.865153598335" lon="14.831505840856">
        <ele>165.6</ele>
        <time>2019-11-06T17:54:31Z</time>
      </trkpt>
      <trkpt lat="56.865021080496" lon="14.831277936995">
        <ele>164.8</ele>
        <time>2019-11-06T17:54:36Z</time>
      </trkpt>
      <trkpt lat="56.864978332806" lon="14.831182550973">
        <ele>164.6</ele>
        <time>2019-11-06T17:54:38Z</time>
      </trkpt>
      <trkpt lat="56.865001969764" lon="14.830864876963">
        <ele>165.2</ele>
        <time>2019-11-06T17:54:43Z</time>
      </trkpt>
      <trkpt lat="56.865093583931" lon="14.830568744436">
        <ele>165.2</ele>
        <time>2019-11-06T17:54:48Z</time>
      </trkpt>
      <trkpt lat="56.865121244201" lon="14.830208574193">
        <ele>164.8</ele>
        <time>2019-11-06T17:54:54Z</time>
      </trkpt>
      <trkpt lat="56.865067851498" lon="14.829862736999">
        <ele>165</ele>
        <time>2019-11-06T17:55:00Z</time>
      </trkpt>
      <trkpt lat="56.864957461875" lon="14.829530394664">
        <ele>164</ele>
        <time>2019-11-06T17:55:06Z</time>
      </trkpt>
      <trkpt lat="56.864826620416" lon="14.829269130841">
        <ele>165</ele>
        <time>2019-11-06T17:55:12Z</time>
      </trkpt>
      <trkpt lat="56.86471145311" lon="14.828970567563">
        <ele>164.4</ele>
        <time>2019-11-06T17:55:18Z</time>
      </trkpt>
      <trkpt lat="56.864585640791" lon="14.828657587417">
        <ele>165.2</ele>
        <time>2019-11-06T17:55:24Z</time>
      </trkpt>
      <trkpt lat="56.864470641123" lon="14.828331028593">
        <ele>165</ele>
        <time>2019-11-06T17:55:30Z</time>
      </trkpt>
      <trkpt lat="56.864452871495" lon="14.82814436368">
        <ele>165.4</ele>
        <time>2019-11-06T17:55:33Z</time>
      </trkpt>
      <trkpt lat="56.864597794546" lon="14.82786105546">
        <ele>164.6</ele>
        <time>2019-11-06T17:55:39Z</time>
      </trkpt>
      <trkpt lat="56.864751350954" lon="14.827601048922">
        <ele>165.4</ele>
        <time>2019-11-06T17:55:45Z</time>
      </trkpt>
      <trkpt lat="56.864776748111" lon="14.8275643362">
        <ele>165.6</ele>
        <time>2019-11-06T17:55:46Z</time>
      </trkpt>
      <trkpt lat="56.864916893479" lon="14.827315812865">
        <ele>164.8</ele>
        <time>2019-11-06T17:55:52Z</time>
      </trkpt>
      <trkpt lat="56.865063073815" lon="14.827057901802">
        <ele>165.2</ele>
        <time>2019-11-06T17:55:58Z</time>
      </trkpt>
      <trkpt lat="56.865218306603" lon="14.826830836131">
        <ele>164.6</ele>
        <time>2019-11-06T17:56:04Z</time>
      </trkpt>
      <trkpt lat="56.865247475615" lon="14.826800326015">
        <ele>164.6</ele>
        <time>2019-11-06T17:56:05Z</time>
      </trkpt>
      <trkpt lat="56.865425507171" lon="14.826603602822">
        <ele>164.8</ele>
        <time>2019-11-06T17:56:11Z</time>
      </trkpt>
      <trkpt lat="56.865583086891" lon="14.826405203249">
        <ele>164.6</ele>
        <time>2019-11-06T17:56:17Z</time>
      </trkpt>
      <trkpt lat="56.865695571989" lon="14.826143855607">
        <ele>164.8</ele>
        <time>2019-11-06T17:56:22Z</time>
      </trkpt>
      <trkpt lat="56.865790287459" lon="14.825846968709">
        <ele>164.4</ele>
        <time>2019-11-06T17:56:27Z</time>
      </trkpt>
      <trkpt lat="56.865897911055" lon="14.825547231965">
        <ele>165.2</ele>
        <time>2019-11-06T17:56:33Z</time>
      </trkpt>
      <trkpt lat="56.865994219086" lon="14.825262834098">
        <ele>164.2</ele>
        <time>2019-11-06T17:56:39Z</time>
      </trkpt>
      <trkpt lat="56.8660450134" lon="14.824924540614">
        <ele>165</ele>
        <time>2019-11-06T17:56:45Z</time>
      </trkpt>
      <trkpt lat="56.866062363933" lon="14.824532770608">
        <ele>164.6</ele>
        <time>2019-11-06T17:56:51Z</time>
      </trkpt>
      <trkpt lat="56.866058843535" lon="14.824196991694">
        <ele>164.4</ele>
        <time>2019-11-06T17:56:56Z</time>
      </trkpt>
      <trkpt lat="56.866049958721" lon="14.823876886933">
        <ele>164.4</ele>
        <time>2019-11-06T17:57:01Z</time>
      </trkpt>
      <trkpt lat="56.866029339247" lon="14.823489726972">
        <ele>164.4</ele>
        <time>2019-11-06T17:57:07Z</time>
      </trkpt>
      <trkpt lat="56.865972342327" lon="14.823173980799">
        <ele>164.2</ele>
        <time>2019-11-06T17:57:12Z</time>
      </trkpt>
      <trkpt lat="56.865901599091" lon="14.822812804728">
        <ele>164.2</ele>
        <time>2019-11-06T17:57:18Z</time>
      </trkpt>
      <trkpt lat="56.865818366824" lon="14.822484737162">
        <ele>164</ele>
        <time>2019-11-06T17:57:24Z</time>
      </trkpt>
      <trkpt lat="56.865690626668" lon="14.822178211079">
        <ele>164.4</ele>
        <time>2019-11-06T17:57:31Z</time>
      </trkpt>
      <trkpt lat="56.865544530151" lon="14.821896160144">
        <ele>164</ele>
        <time>2019-11-06T17:57:37Z</time>
      </trkpt>
      <trkpt lat="56.865414610701" lon="14.821663897695">
        <ele>164.6</ele>
        <time>2019-11-06T17:57:42Z</time>
      </trkpt>
      <trkpt lat="56.865231633824" lon="14.821475640221">
        <ele>163.8</ele>
        <time>2019-11-06T17:57:48Z</time>
      </trkpt>
      <trkpt lat="56.865047064386" lon="14.821316132664">
        <ele>165</ele>
        <time>2019-11-06T17:57:54Z</time>
      </trkpt>
      <trkpt lat="56.864856376161" lon="14.821181435531">
        <ele>164</ele>
        <time>2019-11-06T17:58:00Z</time>
      </trkpt>
      <trkpt lat="56.864688486704" lon="14.821059059791">
        <ele>164.4</ele>
        <time>2019-11-06T17:58:05Z</time>
      </trkpt>
      <trkpt lat="56.864545156214" lon="14.820788911154">
        <ele>164.4</ele>
        <time>2019-11-06T17:58:11Z</time>
      </trkpt>
      <trkpt lat="56.864492517882" lon="14.820666200138">
        <ele>163.6</ele>
        <time>2019-11-06T17:58:14Z</time>
      </trkpt>
      <trkpt lat="56.864382463535" lon="14.820402170288">
        <ele>164</ele>
        <time>2019-11-06T17:58:20Z</time>
      </trkpt>
      <trkpt lat="56.864247514945" lon="14.820182815965">
        <ele>163.4</ele>
        <time>2019-11-06T17:58:25Z</time>
      </trkpt>
      <trkpt lat="56.86409957441" lon="14.819965221841">
        <ele>163.8</ele>
        <time>2019-11-06T17:58:31Z</time>
      </trkpt>
      <trkpt lat="56.863915340248" lon="14.81981191689">
        <ele>163.4</ele>
        <time>2019-11-06T17:58:38Z</time>
      </trkpt>
      <trkpt lat="56.863832024162" lon="14.819749723192">
        <ele>163.4</ele>
        <time>2019-11-06T17:58:41Z</time>
      </trkpt>
      <trkpt lat="56.863632870218" lon="14.819817616582">
        <ele>164</ele>
        <time>2019-11-06T17:58:46Z</time>
      </trkpt>
      <trkpt lat="56.863444193649" lon="14.819896657899">
        <ele>163.4</ele>
        <time>2019-11-06T17:58:51Z</time>
      </trkpt>
      <trkpt lat="56.86323791509" lon="14.820001096373">
        <ele>163.4</ele>
        <time>2019-11-06T17:58:57Z</time>
      </trkpt>
      <trkpt lat="56.863049992892" lon="14.820080305328">
        <ele>164</ele>
        <time>2019-11-06T17:59:03Z</time>
      </trkpt>
      <trkpt lat="56.862852850604" lon="14.820166135984">
        <ele>163.8</ele>
        <time>2019-11-06T17:59:09Z</time>
      </trkpt>
      <trkpt lat="56.862713627245" lon="14.820207626389">
        <ele>164.6</ele>
        <time>2019-11-06T17:59:14Z</time>
      </trkpt>
      <trkpt lat="56.86251204255" lon="14.820389513619">
        <ele>164.8</ele>
        <time>2019-11-06T17:59:20Z</time>
      </trkpt>
      <trkpt lat="56.862313726796" lon="14.820489342048">
        <ele>165</ele>
        <time>2019-11-06T17:59:27Z</time>
      </trkpt>
      <trkpt lat="56.862163104053" lon="14.820686484336">
        <ele>164.4</ele>
        <time>2019-11-06T17:59:34Z</time>
      </trkpt>
      <trkpt lat="56.862016253165" lon="14.820859989666">
        <ele>164.8</ele>
        <time>2019-11-06T17:59:40Z</time>
      </trkpt>
      <trkpt lat="56.861885495525" lon="14.820874490353">
        <ele>164.4</ele>
        <time>2019-11-06T17:59:44Z</time>
      </trkpt>
      <trkpt lat="56.86173923137" lon="14.820645413026">
        <ele>164.8</ele>
        <time>2019-11-06T17:59:49Z</time>
      </trkpt>
      <trkpt lat="56.861639402941" lon="14.82032572736">
        <ele>164.2</ele>
        <time>2019-11-06T17:59:55Z</time>
      </trkpt>
      <trkpt lat="56.861522056341" lon="14.820059853492">
        <ele>163.8</ele>
        <time>2019-11-06T18:00:01Z</time>
      </trkpt>
      <trkpt lat="56.861534377734" lon="14.819699180335">
        <ele>164</ele>
        <time>2019-11-06T18:00:06Z</time>
      </trkpt>
      <trkpt lat="56.861665889745" lon="14.819396090831">
        <ele>163.8</ele>
        <time>2019-11-06T18:00:12Z</time>
      </trkpt>
      <trkpt lat="56.86184316693" lon="14.819190566643">
        <ele>163.8</ele>
        <time>2019-11-06T18:00:18Z</time>
      </trkpt>
      <trkpt lat="56.861990185456" lon="14.81894690481">
        <ele>163.8</ele>
        <time>2019-11-06T18:00:24Z</time>
      </trkpt>
      <trkpt lat="56.862050032222" lon="14.818779937362">
        <ele>164.2</ele>
        <time>2019-11-06T18:00:28Z</time>
      </trkpt>
      <trkpt lat="56.862010553473" lon="14.818449774321">
        <ele>163.6</ele>
        <time>2019-11-06T18:00:34Z</time>
      </trkpt>
      <trkpt lat="56.861971242362" lon="14.818227402514">
        <ele>163.8</ele>
        <time>2019-11-06T18:00:39Z</time>
      </trkpt>
      <trkpt lat="56.861990436913" lon="14.818169148309">
        <ele>163.6</ele>
        <time>2019-11-06T18:00:41Z</time>
      </trkpt>
      <trkpt lat="56.862050702774" lon="14.818141068944">
        <ele>163.4</ele>
        <time>2019-11-06T18:00:43Z</time>
      </trkpt>
      <trkpt lat="56.86224968908" lon="14.818119359823">
        <ele>163</ele>
        <time>2019-11-06T18:00:49Z</time>
      </trkpt>
      <trkpt lat="56.862428139731" lon="14.818181218245">
        <ele>163</ele>
        <time>2019-11-06T18:00:56Z</time>
      </trkpt>
      <trkpt lat="56.862449848852" lon="14.818194294009">
        <ele>163.2</ele>
        <time>2019-11-06T18:00:57Z</time>
      </trkpt>
      <trkpt lat="56.862654283393" lon="14.818236706423">
        <ele>162.8</ele>
        <time>2019-11-06T18:01:03Z</time>
      </trkpt>
      <trkpt lat="56.862849749301" lon="14.818242992848">
        <ele>163.2</ele>
        <time>2019-11-06T18:01:09Z</time>
      </trkpt>
      <trkpt lat="56.863040353707" lon="14.818255146603">
        <ele>162.8</ele>
        <time>2019-11-06T18:01:14Z</time>
      </trkpt>
      <trkpt lat="56.863221738023" lon="14.818216589863">
        <ele>162.8</ele>
        <time>2019-11-06T18:01:20Z</time>
      </trkpt>
      <trkpt lat="56.863432458989" lon="14.818136626537">
        <ele>162.8</ele>
        <time>2019-11-06T18:01:26Z</time>
      </trkpt>
      <trkpt lat="56.863620381187" lon="14.818032355701">
        <ele>162.4</ele>
        <time>2019-11-06T18:01:32Z</time>
      </trkpt>
      <trkpt lat="56.863803525702" lon="14.817846612797">
        <ele>163.2</ele>
        <time>2019-11-06T18:01:38Z</time>
      </trkpt>
      <trkpt lat="56.863986334941" lon="14.817705629239">
        <ele>162.6</ele>
        <time>2019-11-06T18:01:44Z</time>
      </trkpt>
      <trkpt lat="56.864139975168" lon="14.81755718579">
        <ele>163.6</ele>
        <time>2019-11-06T18:01:50Z</time>
      </trkpt>
      <trkpt lat="56.864330411936" lon="14.817386362668">
        <ele>163</ele>
        <time>2019-11-06T18:01:56Z</time>
      </trkpt>
      <trkpt lat="56.864522525084" lon="14.817211935329">
        <ele>162.8</ele>
        <time>2019-11-06T18:02:03Z</time>
      </trkpt>
      <trkpt lat="56.864692929111" lon="14.81705678636">
        <ele>163.6</ele>
        <time>2019-11-06T18:02:09Z</time>
      </trkpt>
      <trkpt lat="56.864872050314" lon="14.816939523579">
        <ele>163.8</ele>
        <time>2019-11-06T18:02:15Z</time>
      </trkpt>
      <trkpt lat="56.86504505273" lon="14.816754954141">
        <ele>164</ele>
        <time>2019-11-06T18:02:21Z</time>
      </trkpt>
      <trkpt lat="56.865211601083" lon="14.816562505717">
        <ele>163.8</ele>
        <time>2019-11-06T18:02:27Z</time>
      </trkpt>
      <trkpt lat="56.865372449744" lon="14.81638791074">
        <ele>163.4</ele>
        <time>2019-11-06T18:02:33Z</time>
      </trkpt>
      <trkpt lat="56.865551654766" lon="14.816245334621">
        <ele>163.8</ele>
        <time>2019-11-06T18:02:39Z</time>
      </trkpt>
      <trkpt lat="56.865720382413" lon="14.816117845922">
        <ele>163.4</ele>
        <time>2019-11-06T18:02:45Z</time>
      </trkpt>
      <trkpt lat="56.865914842493" lon="14.815988513205">
        <ele>162.8</ele>
        <time>2019-11-06T18:02:51Z</time>
      </trkpt>
      <trkpt lat="56.866103519062" lon="14.815843506335">
        <ele>163.2</ele>
        <time>2019-11-06T18:02:57Z</time>
      </trkpt>
      <trkpt lat="56.866296302762" lon="14.815724567174">
        <ele>163</ele>
        <time>2019-11-06T18:03:03Z</time>
      </trkpt>
      <trkpt lat="56.866461929106" lon="14.815550978025">
        <ele>163</ele>
        <time>2019-11-06T18:03:10Z</time>
      </trkpt>
      <trkpt lat="56.866660077222" lon="14.815467829577">
        <ele>163.2</ele>
        <time>2019-11-06T18:03:16Z</time>
      </trkpt>
      <trkpt lat="56.866861326641" lon="14.815384681129">
        <ele>162.8</ele>
        <time>2019-11-06T18:03:22Z</time>
      </trkpt>
      <trkpt lat="56.867062911336" lon="14.815297174093">
        <ele>162.6</ele>
        <time>2019-11-06T18:03:29Z</time>
      </trkpt>
      <trkpt lat="56.867092080348" lon="14.815281667578">
        <ele>162.4</ele>
        <time>2019-11-06T18:03:30Z</time>
      </trkpt>
      <trkpt lat="56.867266172411" lon="14.815181587692">
        <ele>162.8</ele>
        <time>2019-11-06T18:03:36Z</time>
      </trkpt>
      <trkpt lat="56.867447640546" lon="14.815109335714">
        <ele>162.6</ele>
        <time>2019-11-06T18:03:42Z</time>
      </trkpt>
      <trkpt lat="56.867640424246" lon="14.815095840855">
        <ele>162.6</ele>
        <time>2019-11-06T18:03:48Z</time>
      </trkpt>
      <trkpt lat="56.867802530192" lon="14.81506105597">
        <ele>162.6</ele>
        <time>2019-11-06T18:03:53Z</time>
      </trkpt>
      <trkpt lat="56.867979472101" lon="14.815133727043">
        <ele>162.6</ele>
        <time>2019-11-06T18:03:59Z</time>
      </trkpt>
      <trkpt lat="56.868169405955" lon="14.815220563527">
        <ele>162.6</ele>
        <time>2019-11-06T18:04:05Z</time>
      </trkpt>
      <trkpt lat="56.868352801927" lon="14.815254929317">
        <ele>163</ele>
        <time>2019-11-06T18:04:12Z</time>
      </trkpt>
      <trkpt lat="56.868558829029" lon="14.815311255685">
        <ele>162.6</ele>
        <time>2019-11-06T18:04:19Z</time>
      </trkpt>
      <trkpt lat="56.868738034051" lon="14.815379903446">
        <ele>162.8</ele>
        <time>2019-11-06T18:04:25Z</time>
      </trkpt>
      <trkpt lat="56.868882202731" lon="14.815430027208">
        <ele>163.6</ele>
        <time>2019-11-06T18:04:30Z</time>
      </trkpt>
      <trkpt lat="56.869073310051" lon="14.815399433273">
        <ele>164</ele>
        <time>2019-11-06T18:04:37Z</time>
      </trkpt>
      <trkpt lat="56.869257544213" lon="14.815283846872">
        <ele>163.8</ele>
        <time>2019-11-06T18:04:44Z</time>
      </trkpt>
      <trkpt lat="56.869432558285" lon="14.815180330407">
        <ele>163.6</ele>
        <time>2019-11-06T18:04:50Z</time>
      </trkpt>
      <trkpt lat="56.869610841298" lon="14.815012692407">
        <ele>163.2</ele>
        <time>2019-11-06T18:04:57Z</time>
      </trkpt>
      <trkpt lat="56.869774875081" lon="14.814873971962">
        <ele>163.6</ele>
        <time>2019-11-06T18:05:04Z</time>
      </trkpt>
      <trkpt lat="56.869938238312" lon="14.814689989257">
        <ele>163.6</ele>
        <time>2019-11-06T18:05:12Z</time>
      </trkpt>
      <trkpt lat="56.870288517913" lon="14.814454290229">
        <ele>163.4</ele>
        <time>2019-11-06T18:05:27Z</time>
      </trkpt>
      <trkpt lat="56.870485911658" lon="14.814410201435">
        <ele>163.8</ele>
        <time>2019-11-06T18:05:35Z</time>
      </trkpt>
      <trkpt lat="56.870669894363" lon="14.814435347135">
        <ele>164.4</ele>
        <time>2019-11-06T18:05:42Z</time>
      </trkpt>
      <trkpt lat="56.870860750226" lon="14.814479771205">
        <ele>164.4</ele>
        <time>2019-11-06T18:05:49Z</time>
      </trkpt>
      <trkpt lat="56.871050097347" lon="14.814610780302">
        <ele>164</ele>
        <time>2019-11-06T18:05:56Z</time>
      </trkpt>
      <trkpt lat="56.871243551599" lon="14.814742711408">
        <ele>164.4</ele>
        <time>2019-11-06T18:06:03Z</time>
      </trkpt>
      <trkpt lat="56.87142535501" lon="14.814885287527">
        <ele>163.8</ele>
        <time>2019-11-06T18:06:12Z</time>
      </trkpt>
      <trkpt lat="56.871601291091" lon="14.815024762343">
        <ele>163.8</ele>
        <time>2019-11-06T18:06:19Z</time>
      </trkpt>
      <trkpt lat="56.871776053706" lon="14.815058457581">
        <ele>163.8</ele>
        <time>2019-11-06T18:06:27Z</time>
      </trkpt>
      <trkpt lat="56.871957354203" lon="14.814987881983">
        <ele>163.6</ele>
        <time>2019-11-06T18:06:33Z</time>
      </trkpt>
      <trkpt lat="56.872151814283" lon="14.814932980538">
        <ele>163.4</ele>
        <time>2019-11-06T18:06:40Z</time>
      </trkpt>
      <trkpt lat="56.872340155576" lon="14.814852514298">
        <ele>163.2</ele>
        <time>2019-11-06T18:06:46Z</time>
      </trkpt>
      <trkpt lat="56.87254266228" lon="14.814799456871">
        <ele>163.2</ele>
        <time>2019-11-06T18:06:53Z</time>
      </trkpt>
      <trkpt lat="56.872736116532" lon="14.814874391057">
        <ele>163</ele>
        <time>2019-11-06T18:07:01Z</time>
      </trkpt>
      <trkpt lat="56.872872992959" lon="14.815108246067">
        <ele>162.6</ele>
        <time>2019-11-06T18:07:08Z</time>
      </trkpt>
      <trkpt lat="56.87303467981" lon="14.815326846019">
        <ele>162.4</ele>
        <time>2019-11-06T18:07:15Z</time>
      </trkpt>
      <trkpt lat="56.873229810442" lon="14.81538962645">
        <ele>162.8</ele>
        <time>2019-11-06T18:07:23Z</time>
      </trkpt>
      <trkpt lat="56.873437513924" lon="14.815404043318">
        <ele>162.6</ele>
        <time>2019-11-06T18:07:31Z</time>
      </trkpt>
      <trkpt lat="56.873650917098" lon="14.815402786033">
        <ele>162.4</ele>
        <time>2019-11-06T18:07:39Z</time>
      </trkpt>
      <trkpt lat="56.873848059386" lon="14.81543907966">
        <ele>162.8</ele>
        <time>2019-11-06T18:07:48Z</time>
      </trkpt>
      <trkpt lat="56.874005806744" lon="14.815512253647">
        <ele>163</ele>
        <time>2019-11-06T18:07:54Z</time>
      </trkpt>
      <trkpt lat="56.874200434462" lon="14.815380741636">
        <ele>163</ele>
        <time>2019-11-06T18:08:00Z</time>
      </trkpt>
      <trkpt lat="56.874372514869" lon="14.815217629862">
        <ele>163.2</ele>
        <time>2019-11-06T18:08:07Z</time>
      </trkpt>
      <trkpt lat="56.874534956091" lon="14.815054266631">
        <ele>163</ele>
        <time>2019-11-06T18:08:14Z</time>
      </trkpt>
      <trkpt lat="56.874713155285" lon="14.814942368266">
        <ele>162.8</ele>
        <time>2019-11-06T18:08:21Z</time>
      </trkpt>
      <trkpt lat="56.87488121238" lon="14.814809682789">
        <ele>162.4</ele>
        <time>2019-11-06T18:08:28Z</time>
      </trkpt>
      <trkpt lat="56.87505807047" lon="14.814642631522">
        <ele>162.6</ele>
        <time>2019-11-06T18:08:35Z</time>
      </trkpt>
      <trkpt lat="56.875182876961" lon="14.814382792622">
        <ele>162.4</ele>
        <time>2019-11-06T18:08:42Z</time>
      </trkpt>
      <trkpt lat="56.875303241045" lon="14.814131670898">
        <ele>162.2</ele>
        <time>2019-11-06T18:08:49Z</time>
      </trkpt>
      <trkpt lat="56.875427125527" lon="14.813833275258">
        <ele>162.4</ele>
        <time>2019-11-06T18:08:57Z</time>
      </trkpt>
      <trkpt lat="56.875502059713" lon="14.813513841049">
        <ele>162.4</ele>
        <time>2019-11-06T18:09:04Z</time>
      </trkpt>
      <trkpt lat="56.875554362769" lon="14.813183761827">
        <ele>162</ele>
        <time>2019-11-06T18:09:11Z</time>
      </trkpt>
      <trkpt lat="56.875584202333" lon="14.812960216554">
        <ele>162</ele>
        <time>2019-11-06T18:09:15Z</time>
      </trkpt>
      <trkpt lat="56.875625273643" lon="14.812628796228">
        <ele>162.2</ele>
        <time>2019-11-06T18:09:22Z</time>
      </trkpt>
      <trkpt lat="56.875644468194" lon="14.812250856357">
        <ele>162.4</ele>
        <time>2019-11-06T18:09:29Z</time>
      </trkpt>
      <trkpt lat="56.875645138746" lon="14.811920777135">
        <ele>162.4</ele>
        <time>2019-11-06T18:09:35Z</time>
      </trkpt>
      <trkpt lat="56.875656119035" lon="14.811562618548">
        <ele>162.2</ele>
        <time>2019-11-06T18:09:42Z</time>
      </trkpt>
      <trkpt lat="56.875649078239" lon="14.811184511039">
        <ele>161.8</ele>
        <time>2019-11-06T18:09:49Z</time>
      </trkpt>
      <trkpt lat="56.875653520646" lon="14.810824676072">
        <ele>162.4</ele>
        <time>2019-11-06T18:09:56Z</time>
      </trkpt>
      <trkpt lat="56.875672966654" lon="14.81046358382">
        <ele>161.8</ele>
        <time>2019-11-06T18:10:04Z</time>
      </trkpt>
      <trkpt lat="56.875666261134" lon="14.810109280907">
        <ele>162.2</ele>
        <time>2019-11-06T18:10:11Z</time>
      </trkpt>
      <trkpt lat="56.875616975562" lon="14.810029233762">
        <ele>162</ele>
        <time>2019-11-06T18:10:13Z</time>
      </trkpt>
      <trkpt lat="56.875437016169" lon="14.809886992919">
        <ele>162.2</ele>
        <time>2019-11-06T18:10:20Z</time>
      </trkpt>
      <trkpt lat="56.875267534151" lon="14.809764952455">
        <ele>163.2</ele>
        <time>2019-11-06T18:10:27Z</time>
      </trkpt>
      <trkpt lat="56.875225792289" lon="14.809705524784">
        <ele>163.8</ele>
        <time>2019-11-06T18:10:29Z</time>
      </trkpt>
      <trkpt lat="56.875159994374" lon="14.809640229783">
        <ele>164</ele>
        <time>2019-11-06T18:10:32Z</time>
      </trkpt>
      <trkpt lat="56.874978107144" lon="14.80955330948">
        <ele>164.4</ele>
        <time>2019-11-06T18:10:39Z</time>
      </trkpt>
      <trkpt lat="56.874803176891" lon="14.809446440255">
        <ele>164</ele>
        <time>2019-11-06T18:10:47Z</time>
      </trkpt>
      <trkpt lat="56.874602430386" lon="14.809353233527">
        <ele>164.2</ele>
        <time>2019-11-06T18:10:55Z</time>
      </trkpt>
      <trkpt lat="56.874397241474" lon="14.809329345112">
        <ele>163.6</ele>
        <time>2019-11-06T18:11:02Z</time>
      </trkpt>
      <trkpt lat="56.874193393666" lon="14.809295482236">
        <ele>163.4</ele>
        <time>2019-11-06T18:11:09Z</time>
      </trkpt>
      <trkpt lat="56.873993988265" lon="14.809260445894">
        <ele>163.2</ele>
        <time>2019-11-06T18:11:15Z</time>
      </trkpt>
      <trkpt lat="56.873791397742" lon="14.809204203345">
        <ele>163</ele>
        <time>2019-11-06T18:11:22Z</time>
      </trkpt>
      <trkpt lat="56.873595261282" lon="14.809124491476">
        <ele>163.4</ele>
        <time>2019-11-06T18:11:29Z</time>
      </trkpt>
      <trkpt lat="56.873403818686" lon="14.80906715928">
        <ele>163.2</ele>
        <time>2019-11-06T18:11:36Z</time>
      </trkpt>
      <trkpt lat="56.873244143491" lon="14.809051149851">
        <ele>162.8</ele>
        <time>2019-11-06T18:11:41Z</time>
      </trkpt>
      <trkpt lat="56.87304976723" lon="14.808928941749">
        <ele>162.6</ele>
        <time>2019-11-06T18:11:48Z</time>
      </trkpt>
      <trkpt lat="56.872892774243" lon="14.808729452529">
        <ele>162.6</ele>
        <time>2019-11-06T18:11:54Z</time>
      </trkpt>
      <trkpt lat="56.872734523971" lon="14.808520994676">
        <ele>162.6</ele>
        <time>2019-11-06T18:12:00Z</time>
      </trkpt>
      <trkpt lat="56.872591025843" lon="14.808264927631">
        <ele>162.4</ele>
        <time>2019-11-06T18:12:07Z</time>
      </trkpt>
      <trkpt lat="56.872488766663" lon="14.80797667409">
        <ele>162</ele>
        <time>2019-11-06T18:12:14Z</time>
      </trkpt>
      <trkpt lat="56.872398242143" lon="14.807688504368">
        <ele>162.2</ele>
        <time>2019-11-06T18:12:20Z</time>
      </trkpt>
      <trkpt lat="56.872303442854" lon="14.807349540332">
        <ele>162</ele>
        <time>2019-11-06T18:12:27Z</time>
      </trkpt>
      <trkpt lat="56.872181067114" lon="14.807041589326">
        <ele>162.2</ele>
        <time>2019-11-06T18:12:34Z</time>
      </trkpt>
      <trkpt lat="56.872079478486" lon="14.806736907261">
        <ele>162.2</ele>
        <time>2019-11-06T18:12:41Z</time>
      </trkpt>
      <trkpt lat="56.871975710564" lon="14.806432225196">
        <ele>162.6</ele>
        <time>2019-11-06T18:12:48Z</time>
      </trkpt>
      <trkpt lat="56.871979901514" lon="14.806082783785">
        <ele>163</ele>
        <time>2019-11-06T18:12:54Z</time>
      </trkpt>
      <trkpt lat="56.871979482419" lon="14.805719344601">
        <ele>163.2</ele>
        <time>2019-11-06T18:13:00Z</time>
      </trkpt>
      <trkpt lat="56.872003454653" lon="14.805364203498">
        <ele>163</ele>
        <time>2019-11-06T18:13:08Z</time>
      </trkpt>
      <trkpt lat="56.872019547901" lon="14.805000429038">
        <ele>163.4</ele>
        <time>2019-11-06T18:13:14Z</time>
      </trkpt>
      <trkpt lat="56.872008232336" lon="14.804669930721">
        <ele>163.4</ele>
        <time>2019-11-06T18:13:20Z</time>
      </trkpt>
      <trkpt lat="56.87190479969" lon="14.804353262539">
        <ele>163.8</ele>
        <time>2019-11-06T18:13:27Z</time>
      </trkpt>
      <trkpt lat="56.871736407319" lon="14.804153940957">
        <ele>163.4</ele>
        <time>2019-11-06T18:13:33Z</time>
      </trkpt>
      <trkpt lat="56.871651917767" lon="14.803925198906">
        <ele>162.8</ele>
        <time>2019-11-06T18:13:38Z</time>
      </trkpt>
      <trkpt lat="56.871691647973" lon="14.803597885711">
        <ele>162</ele>
        <time>2019-11-06T18:13:44Z</time>
      </trkpt>
      <trkpt lat="56.871721906632" lon="14.803217598908">
        <ele>162.2</ele>
        <time>2019-11-06T18:13:50Z</time>
      </trkpt>
      <trkpt lat="56.871734395663" lon="14.802853824448">
        <ele>162</ele>
        <time>2019-11-06T18:13:56Z</time>
      </trkpt>
      <trkpt lat="56.871767252711" lon="14.802482590097">
        <ele>161.8</ele>
        <time>2019-11-06T18:14:03Z</time>
      </trkpt>
      <trkpt lat="56.871796254085" lon="14.802172292159">
        <ele>161.8</ele>
        <time>2019-11-06T18:14:09Z</time>
      </trkpt>
      <trkpt lat="56.871789045651" lon="14.802113451221">
        <ele>161.6</ele>
        <time>2019-11-06T18:14:10Z</time>
      </trkpt>
      <trkpt lat="56.871722325727" lon="14.801761159964">
        <ele>161.6</ele>
        <time>2019-11-06T18:14:17Z</time>
      </trkpt>
      <trkpt lat="56.871626772067" lon="14.801471816776">
        <ele>161.6</ele>
        <time>2019-11-06T18:14:23Z</time>
      </trkpt>
      <trkpt lat="56.871516130987" lon="14.801202841605">
        <ele>161.8</ele>
        <time>2019-11-06T18:14:29Z</time>
      </trkpt>
      <trkpt lat="56.871401382776" lon="14.800930346036">
        <ele>161.8</ele>
        <time>2019-11-06T18:14:35Z</time>
      </trkpt>
      <trkpt lat="56.871299458872" lon="14.800638823554">
        <ele>161.6</ele>
        <time>2019-11-06T18:14:41Z</time>
      </trkpt>
      <trkpt lat="56.871218657356" lon="14.8003315431">
        <ele>161.8</ele>
        <time>2019-11-06T18:14:47Z</time>
      </trkpt>
      <trkpt lat="56.871210610732" lon="14.800021664257">
        <ele>162</ele>
        <time>2019-11-06T18:14:53Z</time>
      </trkpt>
      <trkpt lat="56.871297614854" lon="14.799742127892">
        <ele>162</ele>
        <time>2019-11-06T18:14:59Z</time>
      </trkpt>
      <trkpt lat="56.871283114167" lon="14.799400565467">
        <ele>162.2</ele>
        <time>2019-11-06T18:15:06Z</time>
      </trkpt>
      <trkpt lat="56.871297782492" lon="14.799037042464">
        <ele>162.4</ele>
        <time>2019-11-06T18:15:13Z</time>
      </trkpt>
      <trkpt lat="56.871320497441" lon="14.798647032657">
        <ele>162.4</ele>
        <time>2019-11-06T18:15:20Z</time>
      </trkpt>
      <trkpt lat="56.871358970362" lon="14.798323491317">
        <ele>162.4</ele>
        <time>2019-11-06T18:15:26Z</time>
      </trkpt>
      <trkpt lat="56.871433066358" lon="14.797972624983">
        <ele>162.4</ele>
        <time>2019-11-06T18:15:32Z</time>
      </trkpt>
      <trkpt lat="56.871515544254" lon="14.797648245453">
        <ele>162.4</ele>
        <time>2019-11-06T18:15:38Z</time>
      </trkpt>
      <trkpt lat="56.871524177611" lon="14.797601306813">
        <ele>162.6</ele>
        <time>2019-11-06T18:15:39Z</time>
      </trkpt>
      <trkpt lat="56.871592573915" lon="14.797277681654">
        <ele>163</ele>
        <time>2019-11-06T18:15:45Z</time>
      </trkpt>
      <trkpt lat="56.871714782017" lon="14.796982303498">
        <ele>162.6</ele>
        <time>2019-11-06T18:15:52Z</time>
      </trkpt>
      <trkpt lat="56.871814358989" lon="14.79681198329">
        <ele>162.6</ele>
        <time>2019-11-06T18:15:58Z</time>
      </trkpt>
    </trkseg>
  </trk>
</gpx>